createdAt,value
2023-11-01T00:00:21.478Z,9.99
2023-11-01T00:05:13.222Z,10.00
2023-11-01T00:10:05.438Z,9.98
2023-11-01T00:14:57.257Z,9.99
2023-11-01T00:19:49.069Z,10.00
2023-11-01T00:24:44.470Z,9.99
2023-11-01T00:29:36.431Z,10.00
2023-11-01T00:34:28.113Z,9.99
2023-11-01T00:39:19.806Z,9.98
2023-11-01T00:44:11.517Z,9.98
2023-11-01T00:49:03.231Z,9.97
2023-11-01T00:53:54.929Z,9.94
2023-11-01T00:58:46.613Z,9.95
2023-11-01T01:03:38.481Z,9.95
2023-11-01T01:08:30.896Z,9.92
2023-11-01T01:13:22.800Z,9.92
2023-11-01T01:18:16.033Z,9.93
2023-11-01T01:23:07.833Z,9.90
2023-11-01T01:27:59.492Z,9.89
2023-11-01T01:32:51.280Z,9.88
2023-11-01T01:37:43.536Z,9.85
2023-11-01T01:42:35.219Z,9.89
2023-11-01T01:47:27.006Z,9.88
2023-11-01T01:52:19.121Z,9.86
2023-11-01T01:57:11.736Z,9.85
2023-11-01T02:02:04.980Z,9.86
2023-11-01T02:06:57.508Z,9.89
2023-11-01T02:11:49.752Z,9.87
2023-11-01T02:16:41.657Z,9.92
2023-11-01T02:21:33.618Z,9.91
2023-11-01T02:26:26.768Z,9.96
2023-11-01T02:31:18.606Z,9.97
2023-11-01T02:36:10.565Z,10.00
2023-11-01T02:41:02.229Z,10.00
2023-11-01T02:45:55.045Z,10.02
2023-11-01T02:50:46.745Z,10.01
2023-11-01T02:55:38.512Z,10.04
2023-11-01T03:00:30.265Z,10.10
2023-11-01T03:05:22.718Z,10.13
2023-11-01T03:10:14.652Z,10.13
2023-11-01T03:15:08.681Z,10.15
2023-11-01T03:20:00.722Z,10.16
2023-11-01T03:24:52.437Z,10.20
2023-11-01T03:29:44.128Z,10.25
2023-11-01T03:34:35.984Z,10.27
2023-11-01T03:39:28.102Z,10.29
2023-11-01T03:44:19.970Z,10.31
2023-11-01T03:49:11.635Z,10.35
2023-11-01T03:54:03.361Z,10.39
2023-11-01T03:58:55.155Z,10.42
2023-11-01T04:03:47.788Z,10.49
2023-11-01T04:08:40.292Z,10.54
2023-11-01T04:13:35.534Z,10.58
2023-11-01T04:18:27.576Z,10.68
2023-11-01T04:23:20.841Z,10.71
2023-11-01T04:28:12.609Z,10.78
2023-11-01T04:33:04.555Z,10.82
2023-11-01T04:37:56.322Z,10.88
2023-11-01T04:42:48.050Z,10.93
2023-11-01T04:47:48.105Z,10.95
2023-11-01T04:52:42.047Z,11.04
2023-11-01T04:57:34.137Z,11.10
2023-11-01T05:02:27.406Z,11.10
2023-11-01T05:07:20.700Z,11.15
2023-11-01T05:12:12.455Z,11.18
2023-11-01T05:17:04.172Z,11.20
2023-11-01T05:21:55.939Z,11.24
2023-11-01T05:26:48.084Z,11.26
2023-11-01T05:31:39.948Z,11.31
2023-11-01T05:36:31.812Z,11.34
2023-11-01T05:41:23.812Z,11.36
2023-11-01T05:46:19.865Z,11.39
2023-11-01T05:51:11.503Z,11.43
2023-11-01T05:56:09.720Z,11.45
2023-11-01T06:01:04.983Z,11.44
2023-11-01T06:05:59.657Z,11.46
2023-11-01T06:10:52.859Z,11.52
2023-11-01T06:15:44.470Z,11.50
2023-11-01T06:20:37.083Z,11.56
2023-11-01T06:25:28.861Z,11.54
2023-11-01T06:30:20.522Z,11.55
2023-11-01T06:35:12.314Z,11.54
2023-11-01T06:40:04.765Z,11.49
2023-11-01T06:44:56.523Z,11.50
2023-11-01T06:49:51.317Z,11.46
2023-11-01T06:54:44.717Z,11.43
2023-11-01T06:59:36.686Z,11.38
2023-11-01T07:04:28.702Z,11.28
2023-11-01T07:09:20.673Z,11.24
2023-11-01T07:14:12.440Z,11.18
2023-11-01T07:19:04.114Z,11.09
2023-11-01T07:23:55.905Z,11.06
2023-11-01T07:28:47.642Z,11.04
2023-11-01T07:33:39.436Z,10.98
2023-11-01T07:38:31.318Z,10.96
2023-11-01T07:43:23.874Z,10.90
2023-11-01T07:48:15.668Z,10.89
2023-11-01T07:53:07.360Z,10.90
2023-11-01T07:57:59.113Z,10.88
2023-11-01T08:02:50.896Z,10.91
2023-11-01T08:07:42.728Z,10.91
2023-11-01T08:12:34.370Z,10.95
2023-11-01T08:17:26.141Z,10.89
2023-11-01T08:22:20.704Z,10.91
2023-11-01T08:27:12.976Z,10.86
2023-11-01T08:32:06.745Z,10.80
2023-11-01T08:36:59.072Z,10.79
2023-11-01T08:41:50.777Z,10.81
2023-11-01T08:46:42.494Z,10.82
2023-11-01T08:51:34.157Z,10.82
2023-11-01T08:56:25.825Z,10.87
2023-11-01T09:01:17.896Z,10.91
2023-11-01T09:06:09.862Z,11.06
2023-11-01T09:11:01.492Z,11.18
2023-11-01T09:15:53.138Z,11.40
2023-11-01T09:20:44.831Z,11.60
2023-11-01T09:25:36.471Z,12.05
2023-11-01T09:30:28.311Z,12.50
2023-11-01T09:35:20.077Z,12.69
2023-11-01T09:40:12.988Z,12.71
2023-11-01T09:45:10.783Z,12.62
2023-11-01T09:50:02.676Z,12.62
2023-11-01T09:54:54.413Z,12.77
2023-11-01T09:59:47.254Z,13.07
2023-11-01T10:04:40.481Z,13.26
2023-11-01T10:09:32.679Z,13.45
2023-11-01T10:14:33.831Z,13.55
2023-11-01T10:19:26.924Z,13.51
2023-11-01T10:24:18.757Z,13.33
2023-11-01T10:29:10.647Z,13.12
2023-11-01T10:34:15.346Z,13.21
2023-11-01T10:39:09.308Z,13.41
2023-11-01T10:44:02.925Z,13.29
2023-11-01T10:48:55.136Z,13.06
2023-11-01T10:53:47.997Z,12.83
2023-11-01T10:58:45.169Z,12.63
2023-11-01T11:03:47.277Z,12.53
2023-11-01T11:08:39.244Z,12.52
2023-11-01T11:13:31.072Z,12.50
2023-11-01T11:18:24.329Z,12.45
2023-11-01T11:23:18.364Z,12.38
2023-11-01T11:28:19.773Z,12.29
2023-11-01T11:33:16.005Z,12.24
2023-11-01T11:38:35.087Z,12.20
2023-11-01T11:43:59.261Z,12.14
2023-11-01T11:48:52.646Z,12.08
2023-11-01T11:53:44.448Z,11.98
2023-11-01T11:58:39.454Z,12.07
2023-11-01T12:03:31.418Z,12.27
2023-11-01T12:08:37.253Z,12.35
2023-11-01T12:13:45.878Z,12.39
2023-11-01T12:18:37.719Z,12.50
2023-11-01T12:23:29.475Z,12.52
2023-11-01T12:28:22.279Z,12.38
2023-11-01T12:33:25.280Z,12.26
2023-11-01T12:38:17.503Z,12.10
2023-11-01T12:43:10.014Z,11.99
2023-11-01T12:48:01.865Z,11.94
2023-11-01T12:52:54.263Z,11.90
2023-11-01T12:57:51.168Z,11.85
2023-11-01T13:02:44.283Z,11.74
2023-11-01T13:07:36.378Z,11.67
2023-11-01T13:12:28.068Z,11.65
2023-11-01T13:17:20.764Z,11.58
2023-11-01T13:22:13.781Z,11.60
2023-11-01T13:27:11.507Z,11.62
2023-11-01T13:32:03.740Z,11.61
2023-11-01T13:36:56.934Z,11.52
2023-11-01T13:41:52.006Z,11.59
2023-11-01T13:46:44.363Z,11.53
2023-11-01T13:51:36.332Z,11.53
2023-11-01T13:56:28.276Z,11.47
2023-11-01T14:01:22.945Z,11.43
2023-11-01T14:06:14.601Z,11.38
2023-11-01T14:11:07.441Z,11.38
2023-11-01T14:15:59.148Z,11.42
2023-11-01T14:20:51.746Z,11.50
2023-11-01T14:25:43.964Z,11.53
2023-11-01T14:30:35.837Z,11.55
2023-11-01T14:35:27.523Z,11.56
2023-11-01T14:40:19.275Z,11.54
2023-11-01T14:45:11.410Z,11.46
2023-11-01T14:50:06.232Z,11.45
2023-11-01T14:54:58.486Z,11.47
2023-11-01T14:59:50.276Z,11.51
2023-11-01T15:04:43.196Z,11.61
2023-11-01T15:09:35.959Z,11.68
2023-11-01T15:14:29.364Z,11.66
2023-11-01T15:19:21.100Z,11.62
2023-11-01T15:24:15.048Z,11.61
2023-11-01T15:29:07.438Z,11.54
2023-11-01T15:34:01.711Z,11.41
2023-11-01T15:38:54.301Z,11.29
2023-11-01T15:43:45.942Z,11.23
2023-11-01T15:48:38.193Z,11.04
2023-11-01T15:53:32.560Z,10.82
2023-11-01T15:58:24.764Z,10.63
2023-11-01T16:03:16.677Z,10.43
2023-11-01T16:08:08.695Z,10.27
2023-11-01T16:13:00.418Z,10.04
2023-11-01T16:17:52.316Z,9.84
2023-11-01T16:22:44.200Z,9.67
2023-11-01T16:27:35.901Z,9.59
2023-11-01T16:32:29.673Z,9.50
2023-11-01T16:37:21.545Z,9.39
2023-11-01T16:42:15.355Z,9.29
2023-11-01T16:47:07.948Z,9.23
2023-11-01T16:51:59.658Z,9.18
2023-11-01T16:56:51.352Z,9.17
2023-11-01T17:01:43.123Z,9.12
2023-11-01T17:06:34.811Z,9.05
2023-11-01T17:11:27.029Z,8.94
2023-11-01T17:16:18.827Z,8.88
2023-11-01T17:21:10.772Z,8.79
2023-11-01T17:26:02.440Z,8.72
2023-11-01T17:30:54.241Z,8.66
2023-11-01T17:35:45.936Z,8.55
2023-11-01T17:40:38.631Z,8.52
2023-11-01T17:45:30.247Z,8.50
2023-11-01T17:50:21.993Z,8.40
2023-11-01T17:55:19.465Z,8.35
2023-11-01T18:00:11.720Z,8.32
2023-11-01T18:05:03.689Z,8.33
2023-11-01T18:09:58.096Z,8.36
2023-11-01T18:14:51.269Z,8.32
2023-11-01T18:19:46.436Z,8.30
2023-11-01T18:24:38.062Z,8.30
2023-11-01T18:29:30.444Z,8.27
2023-11-01T18:34:23.979Z,8.22
2023-11-01T18:39:25.362Z,8.17
2023-11-01T18:44:26.747Z,8.11
2023-11-01T18:49:53.298Z,8.08
2023-11-01T18:54:48.908Z,8.00
2023-11-01T18:59:41.242Z,7.89
2023-11-01T19:04:33.178Z,7.80
2023-11-01T19:09:25.152Z,7.68
2023-11-01T19:14:16.928Z,7.61
2023-11-01T19:19:09.207Z,7.50
2023-11-01T19:24:02.406Z,7.40
2023-11-01T19:28:54.212Z,7.32
2023-11-01T19:33:46.714Z,7.32
2023-11-01T19:38:38.701Z,7.30
2023-11-01T19:43:30.406Z,7.30
2023-11-01T19:48:29.230Z,7.30
2023-11-01T19:53:21.524Z,7.33
2023-11-01T19:58:13.290Z,7.29
2023-11-01T20:03:06.496Z,7.26
2023-11-01T20:07:58.903Z,7.25
2023-11-01T20:12:50.619Z,7.21
2023-11-01T20:17:42.785Z,7.19
2023-11-01T20:22:40.091Z,7.13
2023-11-01T20:27:31.850Z,7.10
2023-11-01T20:32:23.866Z,7.09
2023-11-01T20:37:16.712Z,7.09
2023-11-01T20:42:08.475Z,7.06
2023-11-01T20:47:00.192Z,7.02
2023-11-01T20:51:51.845Z,7.02
2023-11-01T20:56:45.237Z,7.02
2023-11-01T21:01:37.817Z,7.05
2023-11-01T21:06:29.596Z,7.03
2023-11-01T21:11:21.502Z,7.06
2023-11-01T21:16:13.552Z,7.05
2023-11-01T21:21:06.528Z,7.05
2023-11-01T21:25:59.920Z,7.02
2023-11-01T21:30:51.627Z,7.03
2023-11-01T21:35:43.269Z,7.04
2023-11-01T21:40:35.138Z,7.04
2023-11-01T21:45:40.320Z,7.02
2023-11-01T21:50:49.637Z,7.06
2023-11-01T21:55:51.479Z,7.06
2023-11-01T22:00:53.684Z,7.05
2023-11-01T22:05:45.695Z,7.08
2023-11-01T22:10:41.177Z,7.08
2023-11-01T22:15:32.987Z,7.11
2023-11-01T22:20:27.116Z,7.12
2023-11-01T22:25:29.618Z,7.10
2023-11-01T22:30:21.359Z,7.05
2023-11-01T22:35:23.938Z,7.05
2023-11-01T22:40:17.225Z,7.01
2023-11-01T22:45:09.328Z,6.96
2023-11-01T22:50:01.785Z,6.96
2023-11-01T22:54:55.572Z,6.93
2023-11-01T22:59:47.333Z,6.93
2023-11-01T23:04:41.827Z,6.94
2023-11-01T23:09:33.512Z,6.98
2023-11-01T23:14:25.629Z,6.97
2023-11-01T23:19:17.843Z,7.01
2023-11-01T23:24:12.223Z,7.01
2023-11-01T23:29:10.227Z,7.04
2023-11-01T23:34:09.495Z,7.04
2023-11-01T23:39:01.338Z,7.01
2023-11-01T23:43:54.774Z,6.97
2023-11-01T23:48:49.337Z,6.97
2023-11-01T23:53:41.784Z,6.93
2023-11-01T23:58:43.100Z,6.96
